Time;durP1;ratioP1;P1;durP2;ratioP2;P2;SDS_P1;SDS_P2;PMS_P1;PMS_P2;Temp;Humidity;BMP_temperature;BMP_pressure;BME280_temperature;BME280_humidity;BME280_pressure;Samples;Min_cycle;Max_cycle;Signal;HPM_P1;HPM_P2
2024/01/09 00:02:49;;;;;;;13.50;7.72;;;;;;;;;;10353272;28;20034;-76
2024/01/09 00:07:53;;;;;;;14.25;7.13;;;;;;;;;;10341769;28;20068;-76
2024/01/09 00:12:57;;;;;;;14.55;7.43;;;;;;;;;;10372525;28;20050;-76
2024/01/09 00:18:01;;;;;;;12.95;6.32;;;;;;;;;;10353996;28;20728;-76
2024/01/09 00:23:05;;;;;;;12.07;6.65;;;;;;;;;;10367201;28;20038;-76
2024/01/09 00:28:08;;;;;;;10.30;4.88;;;;;;;;;;10353416;28;20377;-76
2024/01/09 00:33:13;;;;;;;9.27;5.35;;;;;;;;;;10346811;28;20080;-74
2024/01/09 00:38:16;;;;;;;9.70;5.20;;;;;;;;;;10354190;28;20041;-73
2024/01/09 00:43:19;;;;;;;9.30;5.35;;;;;;;;;;10352973;28;20044;-74
2024/01/09 00:48:24;;;;;;;11.85;5.75;;;;;;;;;;10361523;28;20042;-74
2024/01/09 00:53:27;;;;;;;11.57;4.93;;;;;;;;;;10362092;28;20049;-74
2024/01/09 00:58:30;;;;;;;8.00;4.75;;;;;;;;;;10360862;28;20053;-74
2024/01/09 01:03:35;;;;;;;6.40;4.55;;;;;;;;;;10356470;28;20038;-74
2024/01/09 01:08:38;;;;;;;7.47;4.13;;;;;;;;;;10356718;28;20108;-74
2024/01/09 01:13:42;;;;;;;8.40;5.18;;;;;;;;;;10371352;28;20046;-74
2024/01/09 01:18:46;;;;;;;9.65;5.38;;;;;;;;;;10357858;28;20395;-74
2024/01/09 01:23:49;;;;;;;9.60;5.47;;;;;;;;;;10359503;28;20475;-75
2024/01/09 01:28:53;;;;;;;8.02;5.03;;;;;;;;;;10358554;28;20052;-74
2024/01/09 01:33:58;;;;;;;9.60;5.60;;;;;;;;;;10353222;28;20048;-75
2024/01/09 01:39:01;;;;;;;10.97;6.07;;;;;;;;;;10358507;28;20056;-77
2024/01/09 01:44:16;;;;;;;11.25;6.13;;;;;;;;;;10352699;28;20042;-77
2024/01/09 01:49:21;;;;;;;11.83;6.33;;;;;;;;;;10346455;28;20045;-78
2024/01/09 01:54:25;;;;;;;9.75;5.93;;;;;;;;;;10354124;28;20069;-77
2024/01/09 01:59:28;;;;;;;9.93;5.45;;;;;;;;;;10360115;28;20045;-77
2024/01/09 02:04:34;;;;;;;9.60;5.50;;;;;;;;;;10365882;28;20054;-77
2024/01/09 02:09:38;;;;;;;11.48;5.22;;;;;;;;;;10366683;28;20037;-77
2024/01/09 02:14:41;;;;;;;7.03;4.72;;;;;;;;;;10361961;28;20053;-77
2024/01/09 02:19:46;;;;;;;9.18;4.95;;;;;;;;;;10356681;28;20073;-76
2024/01/09 02:24:49;;;;;;;7.85;4.82;;;;;;;;;;10358509;28;20494;-77
2024/01/09 02:29:54;;;;;;;11.13;6.10;;;;;;;;;;10370464;28;20426;-76
2024/01/09 02:34:57;;;;;;;9.57;5.33;;;;;;;;;;10348503;28;20050;-76
2024/01/09 02:40:01;;;;;;;8.52;4.70;;;;;;;;;;10350007;28;20546;-76
2024/01/09 02:45:06;;;;;;;8.98;4.80;;;;;;;;;;10352032;28;20045;-77
2024/01/09 02:50:09;;;;;;;9.70;5.47;;;;;;;;;;10355376;28;20056;-77
2024/01/09 02:55:13;;;;;;;8.10;4.95;;;;;;;;;;10342959;28;20376;-77
2024/01/09 03:00:20;;;;;;;6.47;4.43;;;;;;;;;;10349800;28;20168;-77
2024/01/09 03:05:23;;;;;;;7.10;4.43;;;;;;;;;;10343968;28;20050;-77
2024/01/09 03:10:26;;;;;;;9.02;4.72;;;;;;;;;;10343150;28;20655;-77
2024/01/09 03:15:31;;;;;;;8.05;4.88;;;;;;;;;;10346489;28;20046;-77
2024/01/09 03:20:34;;;;;;;9.60;5.68;;;;;;;;;;10352175;28;20046;-77
2024/01/09 03:25:37;;;;;;;9.50;5.05;;;;;;;;;;10348408;28;20049;-77
2024/01/09 03:30:43;;;;;;;11.82;6.57;;;;;;;;;;10343385;28;20411;-77
2024/01/09 03:35:46;;;;;;;10.02;5.75;;;;;;;;;;10350977;28;20061;-77
2024/01/09 03:40:50;;;;;;;11.15;6.30;;;;;;;;;;10355323;28;20411;-77
2024/01/09 03:45:57;;;;;;;11.35;5.80;;;;;;;;;;10351222;28;20121;-77
2024/01/09 03:51:00;;;;;;;11.95;6.07;;;;;;;;;;10354432;28;20073;-77
2024/01/09 03:56:04;;;;;;;9.38;5.50;;;;;;;;;;10353984;28;20045;-77
2024/01/09 04:01:10;;;;;;;13.23;6.55;;;;;;;;;;10350210;28;20057;-77
2024/01/09 04:06:13;;;;;;;11.45;6.50;;;;;;;;;;10348304;28;20042;-77
2024/01/09 04:11:16;;;;;;;13.60;8.02;;;;;;;;;;10352894;28;20057;-77
2024/01/09 04:16:21;;;;;;;10.65;6.18;;;;;;;;;;10360116;28;20042;-77
2024/01/09 04:21:24;;;;;;;12.93;6.07;;;;;;;;;;10358041;28;20045;-77
2024/01/09 04:26:28;;;;;;;10.02;5.88;;;;;;;;;;10351740;28;20041;-77
2024/01/09 04:31:32;;;;;;;9.93;6.40;;;;;;;;;;10360353;28;20038;-77
2024/01/09 04:36:35;;;;;;;8.57;5.25;;;;;;;;;;10353889;28;20042;-76
2024/01/09 04:41:39;;;;;;;12.20;6.28;;;;;;;;;;10362451;28;20525;-77
2024/01/09 04:46:43;;;;;;;10.80;6.22;;;;;;;;;;10361514;28;20059;-77
2024/01/09 04:51:46;;;;;;;8.45;5.05;;;;;;;;;;10365665;28;20061;-77
2024/01/09 04:56:50;;;;;;;11.18;6.20;;;;;;;;;;10367621;28;20128;-77
2024/01/09 05:01:54;;;;;;;9.80;5.05;;;;;;;;;;10361682;28;20061;-77
2024/01/09 05:06:58;;;;;;;12.45;7.10;;;;;;;;;;10358147;23;20053;-78
2024/01/09 05:12:02;;;;;;;10.82;5.60;;;;;;;;;;10321393;28;20135;-78
2024/01/09 05:17:08;;;;;;;8.85;5.32;;;;;;;;;;10328129;28;20050;-79
2024/01/09 05:22:11;;;;;;;8.50;4.70;;;;;;;;;;10319159;28;20459;-78
2024/01/09 05:27:14;;;;;;;8.02;4.20;;;;;;;;;;10317638;28;20042;-78
2024/01/09 05:32:19;;;;;;;7.28;4.03;;;;;;;;;;10337986;28;20070;-78
2024/01/09 05:37:22;;;;;;;7.88;4.40;;;;;;;;;;10322611;28;20050;-78
2024/01/09 05:42:26;;;;;;;8.02;4.28;;;;;;;;;;10323909;28;20042;-78
2024/01/09 05:47:31;;;;;;;9.85;5.88;;;;;;;;;;10320203;28;20154;-78
2024/01/09 05:52:36;;;;;;;6.93;4.22;;;;;;;;;;10313907;28;20050;-78
2024/01/09 05:57:40;;;;;;;8.52;4.88;;;;;;;;;;10317769;28;20644;-78
2024/01/09 06:02:45;;;;;;;11.52;5.68;;;;;;;;;;10320741;28;20141;-78
2024/01/09 06:07:48;;;;;;;7.90;4.45;;;;;;;;;;10321065;28;20046;-78
2024/01/09 06:12:52;;;;;;;7.18;4.25;;;;;;;;;;10315957;28;20038;-78
2024/01/09 06:17:57;;;;;;;6.82;3.45;;;;;;;;;;10317236;28;20100;-78
2024/01/09 06:23:00;;;;;;;5.63;3.33;;;;;;;;;;10323340;28;20050;-78
2024/01/09 06:28:04;;;;;;;4.60;3.28;;;;;;;;;;10322914;28;20074;-78
2024/01/09 06:33:09;;;;;;;6.28;3.63;;;;;;;;;;10317224;28;20065;-78
2024/01/09 06:38:12;;;;;;;7.63;4.07;;;;;;;;;;10321289;28;20054;-78
2024/01/09 06:43:15;;;;;;;7.13;3.55;;;;;;;;;;10316969;28;20109;-78
2024/01/09 06:48:20;;;;;;;7.72;4.40;;;;;;;;;;10321512;28;20166;-79
2024/01/09 06:53:24;;;;;;;7.43;4.60;;;;;;;;;;10318804;28;20050;-78
2024/01/09 06:58:27;;;;;;;6.32;3.88;;;;;;;;;;10318728;28;20132;-78
2024/01/09 07:03:32;;;;;;;7.57;3.35;;;;;;;;;;10315711;28;20137;-78
2024/01/09 07:08:35;;;;;;;6.40;3.75;;;;;;;;;;10310546;28;20050;-79
2024/01/09 07:13:39;;;;;;;5.25;3.10;;;;;;;;;;10312524;28;20463;-78
2024/01/09 07:18:43;;;;;;;7.03;3.65;;;;;;;;;;10314451;28;20096;-78
2024/01/09 07:23:47;;;;;;;5.37;3.27;;;;;;;;;;10318991;28;20133;-78
2024/01/09 07:28:50;;;;;;;5.43;3.35;;;;;;;;;;10321779;28;20054;-78
2024/01/09 07:33:55;;;;;;;6.85;3.33;;;;;;;;;;10316389;28;20096;-78
2024/01/09 07:38:59;;;;;;;8.67;3.57;;;;;;;;;;10316472;28;20057;-78
2024/01/09 07:44:02;;;;;;;4.70;3.00;;;;;;;;;;10314204;28;20296;-78
2024/01/09 07:49:07;;;;;;;6.32;3.83;;;;;;;;;;10311695;28;20121;-78
2024/01/09 07:54:10;;;;;;;4.03;2.67;;;;;;;;;;10318074;28;20564;-78
2024/01/09 07:59:18;;;;;;;8.02;4.10;;;;;;;;;;10304258;28;20507;-78
2024/01/09 08:04:23;;;;;;;7.20;4.00;;;;;;;;;;10315588;28;20117;-78
2024/01/09 08:09:26;;;;;;;7.30;4.50;;;;;;;;;;10315430;28;20050;-78
2024/01/09 08:14:29;;;;;;;8.40;4.97;;;;;;;;;;10311403;28;21017;-78
2024/01/09 08:19:34;;;;;;;6.70;4.25;;;;;;;;;;10313108;28;20050;-77
2024/01/09 08:24:38;;;;;;;8.52;4.82;;;;;;;;;;10315956;28;20090;-78
2024/01/09 08:29:43;;;;;;;9.65;4.90;;;;;;;;;;10315715;28;20043;-78
2024/01/09 08:34:48;;;;;;;6.28;3.78;;;;;;;;;;10313651;28;20057;-78
2024/01/09 08:39:51;;;;;;;11.68;5.93;;;;;;;;;;10314155;28;20057;-78
2024/01/09 08:44:54;;;;;;;6.25;3.97;;;;;;;;;;10315967;28;20050;-78
2024/01/09 08:49:59;;;;;;;9.95;5.10;;;;;;;;;;10313234;28;20049;-78
2024/01/09 08:55:05;;;;;;;5.93;3.92;;;;;;;;;;10314982;28;20504;-78
2024/01/09 09:00:09;;;;;;;6.68;3.75;;;;;;;;;;10318575;28;20050;-78
2024/01/09 09:05:14;;;;;;;6.57;3.70;;;;;;;;;;10326526;28;20121;-78
2024/01/09 09:10:17;;;;;;;8.05;4.13;;;;;;;;;;10325415;28;20038;-77
2024/01/09 09:15:21;;;;;;;7.10;4.35;;;;;;;;;;10323450;28;20039;-78
2024/01/09 09:20:26;;;;;;;9.02;4.93;;;;;;;;;;10322630;28;20525;-78
2024/01/09 09:25:30;;;;;;;7.45;4.05;;;;;;;;;;10321738;28;20041;-78
2024/01/09 09:30:33;;;;;;;7.45;4.20;;;;;;;;;;10320273;28;20053;-78
2024/01/09 09:35:38;;;;;;;8.32;4.43;;;;;;;;;;10322732;28;20515;-78
2024/01/09 09:40:42;;;;;;;8.32;4.80;;;;;;;;;;10313131;28;20062;-78
2024/01/09 09:45:49;;;;;;;9.30;5.40;;;;;;;;;;10307898;28;20062;-78
2024/01/09 09:50:55;;;;;;;8.82;4.57;;;;;;;;;;10315837;28;20046;-78
2024/01/09 09:55:59;;;;;;;9.70;4.82;;;;;;;;;;10320526;28;20035;-78
2024/01/09 10:01:02;;;;;;;7.65;4.22;;;;;;;;;;10316580;28;20088;-77
2024/01/09 10:06:08;;;;;;;7.97;4.35;;;;;;;;;;10313720;28;20326;-78
2024/01/09 10:11:11;;;;;;;8.52;4.75;;;;;;;;;;10318406;28;20120;-79
2024/01/09 10:16:15;;;;;;;10.25;5.72;;;;;;;;;;10318099;28;20042;-78
2024/01/09 10:21:20;;;;;;;7.28;4.75;;;;;;;;;;10319171;28;20042;-78
2024/01/09 10:26:25;;;;;;;6.72;3.75;;;;;;;;;;10313463;28;20049;-78
2024/01/09 10:31:29;;;;;;;7.30;4.20;;;;;;;;;;10317439;28;20046;-78
2024/01/09 10:36:35;;;;;;;6.65;3.50;;;;;;;;;;10317360;28;20049;-78
2024/01/09 10:41:38;;;;;;;8.60;4.80;;;;;;;;;;10318761;28;20070;-77
2024/01/09 10:46:42;;;;;;;10.38;5.13;;;;;;;;;;10322074;28;20396;-78
2024/01/09 10:51:48;;;;;;;7.75;4.70;;;;;;;;;;10331365;28;20051;-77
2024/01/09 10:56:53;;;;;;;7.88;4.82;;;;;;;;;;10312183;28;20047;-78
2024/01/09 11:01:56;;;;;;;6.53;4.10;;;;;;;;;;10320521;28;20042;-78
2024/01/09 11:07:02;;;;;;;7.40;3.63;;;;;;;;;;10334497;23;20408;-77
2024/01/09 11:12:06;;;;;;;8.23;4.53;;;;;;;;;;10313653;28;20042;-77
2024/01/09 11:17:11;;;;;;;12.00;5.60;;;;;;;;;;10308727;28;20045;-76
2024/01/09 11:22:18;;;;;;;7.70;4.07;;;;;;;;;;10316319;28;20046;-76
2024/01/09 11:27:21;;;;;;;7.85;5.07;;;;;;;;;;10314034;28;20054;-76
2024/01/09 11:32:27;;;;;;;6.90;3.83;;;;;;;;;;10313816;28;20162;-77
2024/01/09 11:37:32;;;;;;;8.30;4.03;;;;;;;;;;10317604;28;20039;-77
2024/01/09 11:42:36;;;;;;;7.28;4.30;;;;;;;;;;10312156;28;20467;-76
2024/01/09 11:47:40;;;;;;;6.25;4.00;;;;;;;;;;10313662;28;20042;-77
2024/01/09 11:52:45;;;;;;;7.25;3.83;;;;;;;;;;10312867;28;20117;-77
2024/01/09 11:57:48;;;;;;;6.85;4.28;;;;;;;;;;10312667;28;20049;-77
2024/01/09 12:02:51;;;;;;;7.82;4.60;;;;;;;;;;10308238;28;20453;-77
2024/01/09 12:07:57;;;;;;;9.60;5.15;;;;;;;;;;10312650;28;20508;-76
2024/01/09 12:13:04;;;;;;;7.78;4.30;;;;;;;;;;10311442;28;20133;-77
2024/01/09 12:18:07;;;;;;;8.35;4.70;;;;;;;;;;10313955;28;20125;-77
2024/01/09 12:23:12;;;;;;;7.50;4.32;;;;;;;;;;10312694;28;20212;-77
2024/01/09 12:28:16;;;;;;;8.35;4.55;;;;;;;;;;10311181;28;20042;-77
2024/01/09 12:33:19;;;;;;;8.07;4.70;;;;;;;;;;10323879;28;20039;-77
2024/01/09 12:38:33;;;;;;;8.05;4.50;;;;;;;;;;10313224;28;20042;-76
2024/01/09 12:43:38;;;;;;;8.23;4.83;;;;;;;;;;10318356;28;20141;-77
2024/01/09 12:48:42;;;;;;;7.00;3.80;;;;;;;;;;10319764;28;20053;-77
2024/01/09 12:53:48;;;;;;;6.05;3.85;;;;;;;;;;10324777;28;20054;-77
2024/01/09 12:58:51;;;;;;;8.73;4.95;;;;;;;;;;10319582;28;20045;-76
2024/01/09 13:03:54;;;;;;;7.32;3.85;;;;;;;;;;10320007;28;20054;-77
2024/01/09 13:08:59;;;;;;;7.43;4.50;;;;;;;;;;10315349;28;20046;-77
2024/01/09 13:14:04;;;;;;;8.27;4.57;;;;;;;;;;10320685;28;20557;-76
2024/01/09 13:19:09;;;;;;;10.68;5.80;;;;;;;;;;10318194;28;20637;-77
2024/01/09 13:24:14;;;;;;;6.57;3.77;;;;;;;;;;10320345;28;20097;-77
2024/01/09 13:29:19;;;;;;;9.70;4.90;;;;;;;;;;10323229;28;20053;-77
2024/01/09 13:34:38;;;;;;;8.30;4.57;;;;;;;;;;10323615;28;20094;-77
2024/01/09 13:39:43;;;;;;;8.23;4.38;;;;;;;;;;10321675;28;20126;-77
2024/01/09 13:44:46;;;;;;;6.93;4.53;;;;;;;;;;10316957;28;20062;-77
2024/01/09 13:49:49;;;;;;;9.10;5.30;;;;;;;;;;10319390;28;20062;-77
2024/01/09 13:55:14;;;;;;;8.73;4.40;;;;;;;;;;10321843;28;20053;-77
2024/01/09 14:00:18;;;;;;;7.43;4.45;;;;;;;;;;10315611;28;20054;-77
2024/01/09 14:05:21;;;;;;;7.60;4.65;;;;;;;;;;10320056;28;20555;-77
2024/01/09 14:10:26;;;;;;;7.68;4.03;;;;;;;;;;10318988;28;20050;-77
2024/01/09 14:15:29;;;;;;;9.82;4.97;;;;;;;;;;10315677;28;20050;-77
2024/01/09 14:20:32;;;;;;;9.15;4.78;;;;;;;;;;10321463;28;20042;-77
2024/01/09 14:25:37;;;;;;;6.70;4.45;;;;;;;;;;10320217;28;20052;-77
2024/01/09 14:30:41;;;;;;;7.78;4.35;;;;;;;;;;10320205;28;20057;-76
2024/01/09 14:35:45;;;;;;;8.10;4.50;;;;;;;;;;10318699;28;20038;-77
2024/01/09 14:40:50;;;;;;;8.23;4.03;;;;;;;;;;10320317;28;20054;-77
2024/01/09 14:45:53;;;;;;;7.38;3.35;;;;;;;;;;10317301;28;20042;-76
2024/01/09 14:50:57;;;;;;;8.48;4.30;;;;;;;;;;10319087;28;20042;-76
2024/01/09 14:56:02;;;;;;;8.27;4.18;;;;;;;;;;10319727;28;20042;-77
2024/01/09 15:01:05;;;;;;;8.98;4.00;;;;;;;;;;10315504;28;20454;-77
2024/01/09 15:06:09;;;;;;;5.60;3.10;;;;;;;;;;10316818;28;20046;-77
2024/01/09 15:11:17;;;;;;;6.20;3.70;;;;;;;;;;10321199;28;20037;-77
2024/01/09 15:16:21;;;;;;;6.40;4.07;;;;;;;;;;10316694;28;20552;-77
2024/01/09 15:21:25;;;;;;;6.97;3.90;;;;;;;;;;10314446;28;20042;-77
2024/01/09 15:26:29;;;;;;;5.70;3.90;;;;;;;;;;10316358;28;20416;-77
2024/01/09 15:31:35;;;;;;;8.27;3.75;;;;;;;;;;10322437;28;20054;-77
2024/01/09 15:36:40;;;;;;;7.35;4.50;;;;;;;;;;10316366;28;20117;-76
2024/01/09 15:41:44;;;;;;;6.80;4.20;;;;;;;;;;10313206;28;20041;-77
2024/01/09 15:46:48;;;;;;;6.30;3.70;;;;;;;;;;10317990;28;20049;-77
2024/01/09 15:51:52;;;;;;;5.55;3.53;;;;;;;;;;10316279;28;20047;-77
2024/01/09 15:56:56;;;;;;;5.10;2.95;;;;;;;;;;10315225;28;20061;-77
2024/01/09 16:02:00;;;;;;;6.50;3.38;;;;;;;;;;10303597;28;20049;-77
2024/01/09 16:07:04;;;;;;;4.90;2.72;;;;;;;;;;10300551;28;20050;-77
2024/01/09 16:12:08;;;;;;;3.78;2.65;;;;;;;;;;10312161;28;20064;-76
2024/01/09 16:17:19;;;;;;;5.55;3.25;;;;;;;;;;10311568;28;20047;-77
2024/01/09 16:22:22;;;;;;;4.10;2.50;;;;;;;;;;10302541;28;20127;-77
2024/01/09 16:27:27;;;;;;;3.85;2.80;;;;;;;;;;10309797;28;20042;-77
2024/01/09 16:32:30;;;;;;;4.25;2.58;;;;;;;;;;10309110;28;20531;-77
2024/01/09 16:37:33;;;;;;;5.25;2.53;;;;;;;;;;10309016;28;20520;-77
2024/01/09 16:42:38;;;;;;;6.20;2.97;;;;;;;;;;10316169;28;20526;-77
2024/01/09 16:47:41;;;;;;;5.25;3.03;;;;;;;;;;10312872;28;20431;-77
2024/01/09 16:52:48;;;;;;;7.40;3.30;;;;;;;;;;10307806;28;20392;-77
2024/01/09 16:57:53;;;;;;;5.22;3.05;;;;;;;;;;10313341;28;20101;-77
2024/01/09 17:02:56;;;;;;;6.18;3.20;;;;;;;;;;10308725;28;20066;-77
2024/01/09 17:07:59;;;;;;;7.30;4.43;;;;;;;;;;10370658;23;20061;-77
2024/01/09 17:13:04;;;;;;;6.32;4.55;;;;;;;;;;10397182;28;20042;-77
2024/01/09 17:18:08;;;;;;;7.57;4.22;;;;;;;;;;10399375;28;20137;-77
2024/01/09 17:23:11;;;;;;;7.15;4.03;;;;;;;;;;10405042;28;20441;-77
2024/01/09 17:28:16;;;;;;;7.35;3.90;;;;;;;;;;10405978;28;20638;-77
2024/01/09 17:33:19;;;;;;;6.88;4.85;;;;;;;;;;10402306;28;20058;-77
2024/01/09 17:38:23;;;;;;;9.05;5.35;;;;;;;;;;10401765;28;20124;-77
2024/01/09 17:43:27;;;;;;;9.27;5.32;;;;;;;;;;10400595;28;20049;-77
2024/01/09 17:48:31;;;;;;;7.60;4.70;;;;;;;;;;10400084;28;20044;-77
2024/01/09 17:53:34;;;;;;;6.07;4.57;;;;;;;;;;10398381;28;20465;-79
2024/01/09 17:58:42;;;;;;;5.93;3.78;;;;;;;;;;10400261;28;20057;-77
2024/01/09 18:09:59;;;;;;;8.20;4.38;;;;;;;;;;10394473;28;20067;-77
2024/01/09 18:15:06;;;;;;;7.20;4.28;;;;;;;;;;10394610;28;20041;-77
2024/01/09 18:20:39;;;;;;;8.18;3.80;;;;;;;;;;10400131;28;20055;-77
2024/01/09 18:26:10;;;;;;;7.00;4.43;;;;;;;;;;10398701;28;20126;-77
2024/01/09 18:31:15;;;;;;;8.45;4.38;;;;;;;;;;10399513;28;20041;-77
2024/01/09 18:36:18;;;;;;;6.72;4.15;;;;;;;;;;10412543;28;20498;-77
2024/01/09 18:41:22;;;;;;;9.52;4.43;;;;;;;;;;10398532;28;20033;-77
2024/01/09 18:46:28;;;;;;;7.22;4.25;;;;;;;;;;10401735;28;20133;-77
2024/01/09 18:51:32;;;;;;;7.25;4.13;;;;;;;;;;10404763;28;20041;-77
2024/01/09 18:56:36;;;;;;;9.65;4.80;;;;;;;;;;10399492;28;20134;-77
2024/01/09 19:01:41;;;;;;;11.82;5.32;;;;;;;;;;10404370;28;20124;-77
2024/01/09 19:06:44;;;;;;;9.97;5.63;;;;;;;;;;10403731;28;20052;-77
2024/01/09 19:11:49;;;;;;;8.98;3.92;;;;;;;;;;10399440;28;20048;-77
2024/01/09 19:16:53;;;;;;;8.48;4.65;;;;;;;;;;10400711;28;20055;-77
2024/01/09 19:21:57;;;;;;;8.38;4.22;;;;;;;;;;10403673;28;20133;-76
2024/01/09 19:27:00;;;;;;;7.07;3.42;;;;;;;;;;10401992;28;20414;-77
2024/01/09 19:32:05;;;;;;;5.82;3.72;;;;;;;;;;10402432;28;20525;-77
2024/01/09 19:37:09;;;;;;;7.40;3.83;;;;;;;;;;10397652;28;20659;-77
2024/01/09 19:42:12;;;;;;;8.48;4.70;;;;;;;;;;10396022;28;20125;-77
2024/01/09 19:47:17;;;;;;;8.55;4.28;;;;;;;;;;10394405;28;20049;-77
2024/01/09 19:52:23;;;;;;;9.07;4.35;;;;;;;;;;10402654;28;20046;-77
2024/01/09 19:57:28;;;;;;;12.18;5.70;;;;;;;;;;10406089;28;20042;-77
2024/01/09 20:02:33;;;;;;;9.85;5.18;;;;;;;;;;10404038;28;20137;-77
2024/01/09 20:07:37;;;;;;;10.32;4.85;;;;;;;;;;10407930;28;20049;-77
2024/01/09 20:12:45;;;;;;;7.28;4.20;;;;;;;;;;10400842;28;20045;-77
2024/01/09 20:18:27;;;;;;;9.70;4.68;;;;;;;;;;10407531;28;20528;-77
2024/01/09 20:23:41;;;;;;;6.32;4.25;;;;;;;;;;10405093;28;20057;-78
2024/01/09 20:28:45;;;;;;;8.43;3.90;;;;;;;;;;10406438;28;20049;-77
2024/01/09 20:33:50;;;;;;;8.00;4.07;;;;;;;;;;10403239;28;20144;-77
2024/01/09 20:38:54;;;;;;;6.88;3.65;;;;;;;;;;10408648;28;20049;-77
2024/01/09 20:43:57;;;;;;;8.23;4.32;;;;;;;;;;10390494;28;20132;-77
2024/01/09 20:49:02;;;;;;;6.22;3.33;;;;;;;;;;10400983;28;20060;-77
2024/01/09 20:54:07;;;;;;;7.85;4.13;;;;;;;;;;10390826;28;20132;-76
2024/01/09 20:59:11;;;;;;;9.15;4.43;;;;;;;;;;10400227;28;20458;-77
2024/01/09 21:04:15;;;;;;;7.70;3.85;;;;;;;;;;10406455;28;20045;-77
2024/01/09 21:09:19;;;;;;;8.18;4.47;;;;;;;;;;10405541;28;20045;-77
2024/01/09 21:14:22;;;;;;;7.35;3.97;;;;;;;;;;10404855;28;20506;-77
2024/01/09 21:19:27;;;;;;;8.27;4.10;;;;;;;;;;10396441;28;20057;-77
2024/01/09 21:24:30;;;;;;;8.00;4.05;;;;;;;;;;10403462;28;20054;-77
2024/01/09 21:29:33;;;;;;;8.38;4.40;;;;;;;;;;10405396;28;20052;-77
2024/01/09 21:34:38;;;;;;;7.00;4.10;;;;;;;;;;10405681;28;20042;-77
2024/01/09 21:39:41;;;;;;;9.25;4.38;;;;;;;;;;10403187;28;20051;-77
2024/01/09 21:44:44;;;;;;;9.52;5.25;;;;;;;;;;10404724;28;20057;-77
2024/01/09 21:49:50;;;;;;;6.63;4.50;;;;;;;;;;10402072;28;20049;-78
2024/01/09 21:54:53;;;;;;;11.35;4.82;;;;;;;;;;10400210;28;20552;-77
2024/01/09 21:59:57;;;;;;;8.32;4.60;;;;;;;;;;10397755;28;20051;-76
2024/01/09 22:05:01;;;;;;;12.35;5.47;;;;;;;;;;10401460;28;20048;-77
2024/01/09 22:10:06;;;;;;;8.40;5.00;;;;;;;;;;10402427;28;20156;-77
2024/01/09 22:15:10;;;;;;;9.38;4.78;;;;;;;;;;10402246;28;20053;-77
2024/01/09 22:20:15;;;;;;;9.80;4.82;;;;;;;;;;10404183;28;20059;-77
2024/01/09 22:25:18;;;;;;;10.00;4.63;;;;;;;;;;10402016;28;20041;-77
2024/01/09 22:30:22;;;;;;;7.05;3.97;;;;;;;;;;10403887;28;20054;-77
2024/01/09 22:35:29;;;;;;;11.07;4.85;;;;;;;;;;10404781;28;20064;-77
2024/01/09 22:40:32;;;;;;;10.30;4.45;;;;;;;;;;10399254;28;20413;-77
2024/01/09 22:45:35;;;;;;;10.75;4.93;;;;;;;;;;10403100;28;20072;-77
2024/01/09 22:50:40;;;;;;;12.77;5.50;;;;;;;;;;10398109;28;20612;-77
2024/01/09 22:55:45;;;;;;;13.82;4.82;;;;;;;;;;10403433;28;20049;-77
2024/01/09 23:00:50;;;;;;;11.07;4.95;;;;;;;;;;10396861;28;20045;-77
2024/01/09 23:05:56;;;;;;;9.05;5.13;;;;;;;;;;10410697;23;20356;-76
2024/01/09 23:10:59;;;;;;;10.75;4.57;;;;;;;;;;10310600;28;20742;-76
2024/01/09 23:16:03;;;;;;;10.65;4.72;;;;;;;;;;10314381;28;20507;-77
2024/01/09 23:21:08;;;;;;;11.38;5.15;;;;;;;;;;10316831;28;20038;-77
2024/01/09 23:26:11;;;;;;;10.90;5.93;;;;;;;;;;10301186;28;20050;-76
2024/01/09 23:31:14;;;;;;;10.85;5.38;;;;;;;;;;10312662;28;20136;-77
2024/01/09 23:36:19;;;;;;;9.57;5.15;;;;;;;;;;10315223;28;20109;-76
2024/01/09 23:41:24;;;;;;;10.35;5.65;;;;;;;;;;10316270;28;20607;-77
2024/01/09 23:46:27;;;;;;;10.32;5.32;;;;;;;;;;10297608;28;20050;-76
2024/01/09 23:51:32;;;;;;;11.93;5.72;;;;;;;;;;10311244;28;20038;-77
2024/01/09 23:56:35;;;;;;;12.07;5.47;;;;;;;;;;10309601;28;20045;-77
